Mayfield, KY (42066)

8:18 AM CST on January 31, 2015 (GMT -0600)
Highway 131 | Change Station
CLOSE
Current Station
Personal Weather Station
Location: Mayfield, KY
Elevation: 495 ft
Nearby Weather Stations

Elev 495 ft 36.80 °N, 88.60 °W | Updated 44 seconds ago

Clear
Clear
31.8 °F
Feels Like 32 °F
N
2.7
Wind Variable Wind from South

Today
High -- | Low -- °F
--% Chance of Precip.
Yesterday
High -- | Low -- °F
Precip. -- in
6:57 AM 5:18 PM
Waxing Gibbous, 90% visible
Pressure 30.40 in
Visibility 10.0 miles
Clouds Mostly Cloudy 12000 ft
Windchill 32 °F
Dew Point 26 °F
Humidity 79%
Rainfall 0.00 in
Snow Depth Not available.
UV 1 out of 12
Pollen .30 out of 12
Air Quality Not available.
Flu Activity Not available.
METAR KM25 311435Z AUTO 00000KT 10SM BKN120 00/M03 A3040 RMK AO2

More Conditions Fewer Conditions

Pressure 30.40 in
Visibility 10.0 miles
Clouds Mostly Cloudy 12000 ft
Windchill 32 °F
Dew Point 26 °F
Humidity 79%
Rainfall 0.00 in
Snow Depth Not available.
UV 1 out of 12
Pollen .30 out of 12
Air Quality Not available.
Flu Activity Not available.
METAR KM25 311435Z AUTO 00000KT 10SM BKN120 00/M03 A3040 RMK AO2

More Conditions Fewer Conditions

10-Day Weather Forecast

Almanac

Astronomy

Jan. 31, 2015 Rise Set
Actual Time
Civil Twilight
Nautical Twilight
Astronomical Twilight
Moon
Length of Visible Light
Length of Day
Tomorrow will be .
, % of the Moon is Illuminated

Today's Extremes

State Highs State Lows

Community

WunderPhotos

Upload Photos

1,792,058 photos uploaded!

WunderBlogs® & News

Nearby

Air Quality

  Air Quality AQ Index Pollutant
Not available.

Snow Depth

Station Depth Elevation

Earthquake Activity

City Distance Mag. Time & Date
Minimum magnitude displayed is 2.5.

Coastal Water Temperatures

Place Temperature

Nearby Weather Stations